sensor_id;sensor_type;location;lat;lon;timestamp;pressure;altitude;pressure_sealevel;temperature;humidity
51147;BME280;37207;53.060;18.726;2023-06-14T00:00:39;101002.23;;;14.95;70.43
51147;BME280;37207;53.060;18.726;2023-06-14T00:03:27;100997.33;;;14.98;70.61
51147;BME280;37207;53.060;18.726;2023-06-14T00:05:53;100987.01;;;15.01;70.63
51147;BME280;37207;53.060;18.726;2023-06-14T00:08:20;100981.99;;;15.02;70.71
51147;BME280;37207;53.060;18.726;2023-06-14T00:10:49;100972.84;;;15.01;71.05
51147;BME280;37207;53.060;18.726;2023-06-14T00:13:15;100969.25;;;14.98;71.45
51147;BME280;37207;53.060;18.726;2023-06-14T00:15:42;100962.11;;;14.93;71.64
51147;BME280;37207;53.060;18.726;2023-06-14T00:18:09;100958.34;;;14.84;72.24
51147;BME280;37207;53.060;18.726;2023-06-14T00:20:38;100965.11;;;14.75;72.34
51147;BME280;37207;53.060;18.726;2023-06-14T00:23:05;100973.15;;;14.72;72.58
51147;BME280;37207;53.060;18.726;2023-06-14T00:25:32;100976.29;;;14.71;73.07
51147;BME280;37207;53.060;18.726;2023-06-14T00:27:58;100973.45;;;14.65;73.29
51147;BME280;37207;53.060;18.726;2023-06-14T00:30:25;100967.73;;;14.59;73.50
51147;BME280;37207;53.060;18.726;2023-06-14T00:32:57;100968.74;;;14.54;73.89
51147;BME280;37207;53.060;18.726;2023-06-14T00:35:25;100966.77;;;14.47;74.52
51147;BME280;37207;53.060;18.726;2023-06-14T00:37:52;100960.88;;;14.40;74.93
51147;BME280;37207;53.060;18.726;2023-06-14T00:40:18;100952.83;;;14.35;75.24
51147;BME280;37207;53.060;18.726;2023-06-14T00:42:45;100953.29;;;14.31;75.39
51147;BME280;37207;53.060;18.726;2023-06-14T00:45:12;100955.85;;;14.28;75.59
51147;BME280;37207;53.060;18.726;2023-06-14T00:47:41;100950.55;;;14.27;75.99
51147;BME280;37207;53.060;18.726;2023-06-14T00:50:09;100946.50;;;14.27;76.38
51147;BME280;37207;53.060;18.726;2023-06-14T00:52:37;100948.59;;;14.30;76.46
51147;BME280;37207;53.060;18.726;2023-06-14T00:55:04;100954.54;;;14.26;76.47
51147;BME280;37207;53.060;18.726;2023-06-14T00:57:32;100948.11;;;14.26;76.66
51147;BME280;37207;53.060;18.726;2023-06-14T00:59:59;100945.05;;;14.29;77.10
51147;BME280;37207;53.060;18.726;2023-06-14T01:02:26;100939.42;;;14.27;77.22
51147;BME280;37207;53.060;18.726;2023-06-14T01:04:53;100938.51;;;14.24;76.99
51147;BME280;37207;53.060;18.726;2023-06-14T01:07:25;100939.86;;;14.21;77.04
51147;BME280;37207;53.060;18.726;2023-06-14T01:13:21;100943.51;;;14.19;77.53
51147;BME280;37207;53.060;18.726;2023-06-14T01:15:50;100943.95;;;14.20;77.53
51147;BME280;37207;53.060;18.726;2023-06-14T01:18:17;100940.12;;;14.23;77.71
51147;BME280;37207;53.060;18.726;2023-06-14T01:20:45;100943.11;;;14.24;77.68
51147;BME280;37207;53.060;18.726;2023-06-14T01:23:17;100945.89;;;14.25;77.70
51147;BME280;37207;53.060;18.726;2023-06-14T01:25:44;100934.48;;;14.27;77.73
51147;BME280;37207;53.060;18.726;2023-06-14T01:28:12;100931.34;;;14.28;77.94
51147;BME280;37207;53.060;18.726;2023-06-14T01:30:42;100922.71;;;14.28;78.06
51147;BME280;37207;53.060;18.726;2023-06-14T01:33:16;100915.58;;;14.26;78.08
51147;BME280;37207;53.060;18.726;2023-06-14T01:35:46;100912.29;;;14.23;78.19
51147;BME280;37207;53.060;18.726;2023-06-14T01:38:14;100911.48;;;14.22;78.21
51147;BME280;37207;53.060;18.726;2023-06-14T01:40:43;100911.33;;;14.22;78.62
51147;BME280;37207;53.060;18.726;2023-06-14T01:43:15;100906.92;;;14.21;78.86
51147;BME280;37207;53.060;18.726;2023-06-14T01:45:42;100902.85;;;14.19;78.71
51147;BME280;37207;53.060;18.726;2023-06-14T01:48:11;100894.42;;;14.19;78.95
51147;BME280;37207;53.060;18.726;2023-06-14T01:50:38;100888.68;;;14.21;79.05
51147;BME280;37207;53.060;18.726;2023-06-14T01:53:08;100882.42;;;14.21;78.93
51147;BME280;37207;53.060;18.726;2023-06-14T01:55:37;100878.05;;;14.16;79.10
51147;BME280;37207;53.060;18.726;2023-06-14T01:58:06;100884.00;;;14.12;79.24
51147;BME280;37207;53.060;18.726;2023-06-14T02:00:33;100882.02;;;14.13;79.27
51147;BME280;37207;53.060;18.726;2023-06-14T02:03:00;100883.80;;;14.15;79.33
51147;BME280;37207;53.060;18.726;2023-06-14T02:05:27;100887.14;;;14.14;79.39
51147;BME280;37207;53.060;18.726;2023-06-14T02:07:54;100882.19;;;14.15;79.50
51147;BME280;37207;53.060;18.726;2023-06-14T02:10:20;100882.17;;;14.14;79.67
51147;BME280;37207;53.060;18.726;2023-06-14T02:12:47;100881.02;;;14.16;79.78
51147;BME280;37207;53.060;18.726;2023-06-14T02:15:14;100882.98;;;14.15;79.71
51147;BME280;37207;53.060;18.726;2023-06-14T02:17:45;100880.88;;;14.14;79.84
51147;BME280;37207;53.060;18.726;2023-06-14T02:20:13;100883.34;;;14.14;79.92
51147;BME280;37207;53.060;18.726;2023-06-14T02:22:41;100882.13;;;14.10;79.93
51147;BME280;37207;53.060;18.726;2023-06-14T02:25:08;100887.21;;;14.08;80.01
51147;BME280;37207;53.060;18.726;2023-06-14T02:27:35;100887.42;;;14.09;80.08
51147;BME280;37207;53.060;18.726;2023-06-14T02:30:04;100891.67;;;14.13;80.01
51147;BME280;37207;53.060;18.726;2023-06-14T02:32:33;100890.81;;;14.11;80.06
51147;BME280;37207;53.060;18.726;2023-06-14T02:35:02;100888.54;;;14.11;80.05
51147;BME280;37207;53.060;18.726;2023-06-14T02:37:30;100884.39;;;14.10;80.08
51147;BME280;37207;53.060;18.726;2023-06-14T02:39:56;100882.02;;;14.10;80.15
51147;BME280;37207;53.060;18.726;2023-06-14T02:42:24;100883.27;;;14.09;80.22
51147;BME280;37207;53.060;18.726;2023-06-14T02:44:50;100878.84;;;14.09;80.33
51147;BME280;37207;53.060;18.726;2023-06-14T02:47:18;100882.83;;;14.09;80.32
51147;BME280;37207;53.060;18.726;2023-06-14T02:49:45;100881.97;;;14.08;80.25
51147;BME280;37207;53.060;18.726;2023-06-14T02:52:15;100889.80;;;14.09;80.38
51147;BME280;37207;53.060;18.726;2023-06-14T02:54:42;100895.35;;;14.09;80.49
51147;BME280;37207;53.060;18.726;2023-06-14T02:57:09;100896.16;;;14.12;80.47
51147;BME280;37207;53.060;18.726;2023-06-14T02:59:37;100899.61;;;14.13;80.57
51147;BME280;37207;53.060;18.726;2023-06-14T03:02:04;100897.70;;;14.13;80.61
51147;BME280;37207;53.060;18.726;2023-06-14T03:04:31;100904.15;;;14.13;80.67
51147;BME280;37207;53.060;18.726;2023-06-14T03:07:06;100906.94;;;14.16;80.69
51147;BME280;37207;53.060;18.726;2023-06-14T03:09:36;100905.82;;;14.16;80.70
51147;BME280;37207;53.060;18.726;2023-06-14T03:12:06;100906.03;;;14.16;80.81
51147;BME280;37207;53.060;18.726;2023-06-14T03:14:34;100903.21;;;14.18;80.70
51147;BME280;37207;53.060;18.726;2023-06-14T03:17:04;100898.39;;;14.21;80.82
51147;BME280;37207;53.060;18.726;2023-06-14T03:19:32;100895.41;;;14.24;80.81
51147;BME280;37207;53.060;18.726;2023-06-14T03:21:58;100900.57;;;14.25;80.69
51147;BME280;37207;53.060;18.726;2023-06-14T03:24:26;100900.16;;;14.25;80.72
51147;BME280;37207;53.060;18.726;2023-06-14T03:26:56;100901.48;;;14.25;80.67
51147;BME280;37207;53.060;18.726;2023-06-14T03:29:23;100904.73;;;14.26;80.71
51147;BME280;37207;53.060;18.726;2023-06-14T03:31:59;100908.56;;;14.26;80.76
51147;BME280;37207;53.060;18.726;2023-06-14T03:34:27;100910.27;;;14.26;80.60
51147;BME280;37207;53.060;18.726;2023-06-14T03:36:54;100910.89;;;14.26;80.54
51147;BME280;37207;53.060;18.726;2023-06-14T03:39:21;100911.34;;;14.27;80.68
51147;BME280;37207;53.060;18.726;2023-06-14T03:41:47;100907.66;;;14.29;80.65
51147;BME280;37207;53.060;18.726;2023-06-14T03:44:16;100913.07;;;14.32;80.62
51147;BME280;37207;53.060;18.726;2023-06-14T03:46:44;100914.58;;;14.33;80.57
51147;BME280;37207;53.060;18.726;2023-06-14T03:49:12;100920.05;;;14.35;80.71
51147;BME280;37207;53.060;18.726;2023-06-14T03:51:39;100924.91;;;14.43;80.81
51147;BME280;37207;53.060;18.726;2023-06-14T03:54:06;100929.27;;;14.46;80.64
51147;BME280;37207;53.060;18.726;2023-06-14T03:56:33;100931.19;;;14.44;80.59
51147;BME280;37207;53.060;18.726;2023-06-14T03:59:01;100931.02;;;14.43;80.71
51147;BME280;37207;53.060;18.726;2023-06-14T04:01:29;100928.30;;;14.41;80.83
51147;BME280;37207;53.060;18.726;2023-06-14T04:03:58;100922.89;;;14.42;81.01
51147;BME280;37207;53.060;18.726;2023-06-14T04:06:26;100921.44;;;14.47;81.17
51147;BME280;37207;53.060;18.726;2023-06-14T04:08:59;100914.83;;;14.51;81.17
51147;BME280;37207;53.060;18.726;2023-06-14T04:11:30;100908.09;;;14.56;81.28
51147;BME280;37207;53.060;18.726;2023-06-14T04:13:58;100913.90;;;14.59;81.05
51147;BME280;37207;53.060;18.726;2023-06-14T04:16:26;100912.44;;;14.60;80.92
51147;BME280;37207;53.060;18.726;2023-06-14T04:18:54;100919.26;;;14.60;80.98
51147;BME280;37207;53.060;18.726;2023-06-14T04:21:22;100918.52;;;14.65;81.40
51147;BME280;37207;53.060;18.726;2023-06-14T04:23:50;100912.80;;;14.68;81.34
51147;BME280;37207;53.060;18.726;2023-06-14T04:26:22;100910.41;;;14.74;81.20
51147;BME280;37207;53.060;18.726;2023-06-14T04:28:50;100921.33;;;14.79;81.01
51147;BME280;37207;53.060;18.726;2023-06-14T04:31:17;100929.11;;;14.80;80.82
51147;BME280;37207;53.060;18.726;2023-06-14T04:33:45;100929.31;;;14.87;81.15
51147;BME280;37207;53.060;18.726;2023-06-14T04:36:16;100935.05;;;14.96;81.14
51147;BME280;37207;53.060;18.726;2023-06-14T04:38:45;100945.98;;;15.01;80.90
51147;BME280;37207;53.060;18.726;2023-06-14T04:41:12;100946.39;;;14.99;80.68
51147;BME280;37207;53.060;18.726;2023-06-14T04:43:40;100941.04;;;15.02;80.59
51147;BME280;37207;53.060;18.726;2023-06-14T04:46:09;100937.45;;;15.13;80.65
51147;BME280;37207;53.060;18.726;2023-06-14T04:48:38;100929.14;;;15.23;80.56
51147;BME280;37207;53.060;18.726;2023-06-14T04:51:08;100925.52;;;15.30;80.31
51147;BME280;37207;53.060;18.726;2023-06-14T04:53:35;100912.91;;;15.37;80.24
51147;BME280;37207;53.060;18.726;2023-06-14T04:56:02;100901.42;;;15.48;80.17
51147;BME280;37207;53.060;18.726;2023-06-14T04:58:31;100898.86;;;15.61;80.34
51147;BME280;37207;53.060;18.726;2023-06-14T05:00:59;100898.57;;;15.72;79.77
51147;BME280;37207;53.060;18.726;2023-06-14T05:03:26;100897.15;;;15.78;79.67
51147;BME280;37207;53.060;18.726;2023-06-14T05:05:53;100899.80;;;15.87;79.53
51147;BME280;37207;53.060;18.726;2023-06-14T05:08:21;100900.84;;;15.91;79.07
51147;BME280;37207;53.060;18.726;2023-06-14T05:10:50;100900.77;;;15.93;78.76
51147;BME280;37207;53.060;18.726;2023-06-14T05:13:17;100897.62;;;15.94;78.37
51147;BME280;37207;53.060;18.726;2023-06-14T05:15:45;100894.41;;;15.91;78.23
51147;BME280;37207;53.060;18.726;2023-06-14T05:18:12;100892.44;;;15.91;78.35
51147;BME280;37207;53.060;18.726;2023-06-14T05:20:39;100895.83;;;15.92;78.36
51147;BME280;37207;53.060;18.726;2023-06-14T05:23:08;100900.23;;;15.96;78.49
51147;BME280;37207;53.060;18.726;2023-06-14T05:25:44;100898.48;;;16.02;78.43
51147;BME280;37207;53.060;18.726;2023-06-14T05:28:12;100900.44;;;16.08;78.14
51147;BME280;37207;53.060;18.726;2023-06-14T05:30:39;100903.06;;;16.09;77.77
51147;BME280;37207;53.060;18.726;2023-06-14T05:33:08;100903.90;;;16.10;77.76
51147;BME280;37207;53.060;18.726;2023-06-14T05:35:35;100908.73;;;16.14;77.88
51147;BME280;37207;53.060;18.726;2023-06-14T05:38:01;100912.41;;;16.11;77.75
51147;BME280;37207;53.060;18.726;2023-06-14T05:40:28;100921.72;;;16.07;77.64
51147;BME280;37207;53.060;18.726;2023-06-14T05:42:55;100924.52;;;16.06;77.88
51147;BME280;37207;53.060;18.726;2023-06-14T05:45:22;100925.88;;;16.04;77.64
51147;BME280;37207;53.060;18.726;2023-06-14T05:47:48;100920.36;;;16.04;77.78
51147;BME280;37207;53.060;18.726;2023-06-14T05:50:15;100919.48;;;16.07;77.98
51147;BME280;37207;53.060;18.726;2023-06-14T05:52:41;100921.71;;;16.08;78.00
51147;BME280;37207;53.060;18.726;2023-06-14T05:55:08;100918.14;;;16.12;78.06
51147;BME280;37207;53.060;18.726;2023-06-14T05:57:35;100918.05;;;16.17;77.97
51147;BME280;37207;53.060;18.726;2023-06-14T06:00:02;100912.91;;;16.21;77.81
51147;BME280;37207;53.060;18.726;2023-06-14T06:02:38;100913.85;;;16.25;77.89
51147;BME280;37207;53.060;18.726;2023-06-14T06:05:05;100920.59;;;16.24;77.62
51147;BME280;37207;53.060;18.726;2023-06-14T06:07:32;100927.48;;;16.24;77.88
51147;BME280;37207;53.060;18.726;2023-06-14T06:09:59;100925.97;;;16.24;78.11
51147;BME280;37207;53.060;18.726;2023-06-14T06:12:25;100924.01;;;16.27;78.12
51147;BME280;37207;53.060;18.726;2023-06-14T06:14:52;100921.89;;;16.27;78.06
51147;BME280;37207;53.060;18.726;2023-06-14T06:17:18;100925.55;;;16.26;78.01
51147;BME280;37207;53.060;18.726;2023-06-14T06:19:45;100928.23;;;16.26;77.96
51147;BME280;37207;53.060;18.726;2023-06-14T06:22:12;100928.96;;;16.28;78.13
51147;BME280;37207;53.060;18.726;2023-06-14T06:24:38;100926.92;;;16.29;78.13
51147;BME280;37207;53.060;18.726;2023-06-14T06:27:05;100921.44;;;16.30;77.90
51147;BME280;37207;53.060;18.726;2023-06-14T06:29:35;100913.83;;;16.27;77.86
51147;BME280;37207;53.060;18.726;2023-06-14T06:32:02;100915.58;;;16.24;77.89
51147;BME280;37207;53.060;18.726;2023-06-14T06:34:28;100924.30;;;16.22;77.89
51147;BME280;37207;53.060;18.726;2023-06-14T06:36:55;100928.33;;;16.18;78.18
51147;BME280;37207;53.060;18.726;2023-06-14T06:39:21;100928.13;;;16.15;78.18
51147;BME280;37207;53.060;18.726;2023-06-14T06:41:48;100922.27;;;16.13;78.30
51147;BME280;37207;53.060;18.726;2023-06-14T06:44:15;100925.61;;;16.13;78.36
51147;BME280;37207;53.060;18.726;2023-06-14T06:46:43;100924.74;;;16.14;78.55
51147;BME280;37207;53.060;18.726;2023-06-14T06:49:10;100927.23;;;16.16;78.83
51147;BME280;37207;53.060;18.726;2023-06-14T06:51:41;100920.46;;;16.21;79.18
51147;BME280;37207;53.060;18.726;2023-06-14T06:54:11;100924.74;;;16.25;79.06
51147;BME280;37207;53.060;18.726;2023-06-14T06:56:37;100928.09;;;16.29;79.21
51147;BME280;37207;53.060;18.726;2023-06-14T06:59:04;100925.39;;;16.31;79.09
51147;BME280;37207;53.060;18.726;2023-06-14T07:01:30;100922.10;;;16.31;78.89
51147;BME280;37207;53.060;18.726;2023-06-14T07:04:00;100923.92;;;16.30;78.93
51147;BME280;37207;53.060;18.726;2023-06-14T07:06:26;100926.16;;;16.30;78.91
51147;BME280;37207;53.060;18.726;2023-06-14T07:08:53;100924.33;;;16.30;78.81
51147;BME280;37207;53.060;18.726;2023-06-14T07:11:20;100922.20;;;16.31;78.72
51147;BME280;37207;53.060;18.726;2023-06-14T07:13:47;100923.55;;;16.33;78.88
51147;BME280;37207;53.060;18.726;2023-06-14T07:16:13;100928.73;;;16.39;78.71
51147;BME280;37207;53.060;18.726;2023-06-14T07:18:40;100933.84;;;16.47;78.34
51147;BME280;37207;53.060;18.726;2023-06-14T07:21:07;100941.09;;;16.55;78.10
51147;BME280;37207;53.060;18.726;2023-06-14T07:23:33;100945.31;;;16.61;77.58
51147;BME280;37207;53.060;18.726;2023-06-14T07:26:00;100954.64;;;16.69;77.64
51147;BME280;37207;53.060;18.726;2023-06-14T07:28:26;100963.47;;;16.81;77.46
51147;BME280;37207;53.060;18.726;2023-06-14T07:30:53;100967.72;;;16.94;77.36
51147;BME280;37207;53.060;18.726;2023-06-14T07:33:19;100968.45;;;17.08;76.80
51147;BME280;37207;53.060;18.726;2023-06-14T07:35:46;100966.23;;;17.23;76.83
51147;BME280;37207;53.060;18.726;2023-06-14T07:38:14;100962.84;;;17.36;76.56
51147;BME280;37207;53.060;18.726;2023-06-14T07:40:40;100961.70;;;17.52;76.82
51147;BME280;37207;53.060;18.726;2023-06-14T07:43:07;100966.88;;;17.70;76.90
51147;BME280;37207;53.060;18.726;2023-06-14T07:45:33;100969.90;;;17.85;76.53
51147;BME280;37207;53.060;18.726;2023-06-14T07:48:00;100974.95;;;18.03;75.89
51147;BME280;37207;53.060;18.726;2023-06-14T07:50:27;100976.92;;;18.22;75.46
51147;BME280;37207;53.060;18.726;2023-06-14T07:52:53;100975.68;;;18.41;75.02
51147;BME280;37207;53.060;18.726;2023-06-14T07:55:20;100976.89;;;18.56;74.08
51147;BME280;37207;53.060;18.726;2023-06-14T07:57:46;100977.03;;;18.67;73.68
51147;BME280;37207;53.060;18.726;2023-06-14T08:00:13;100976.66;;;18.77;72.97
51147;BME280;37207;53.060;18.726;2023-06-14T08:02:42;100981.23;;;18.85;71.61
51147;BME280;37207;53.060;18.726;2023-06-14T08:05:10;100983.60;;;18.92;71.94
51147;BME280;37207;53.060;18.726;2023-06-14T08:07:38;100982.81;;;18.98;71.84
51147;BME280;37207;53.060;18.726;2023-06-14T08:10:06;100985.15;;;19.02;71.28
51147;BME280;37207;53.060;18.726;2023-06-14T08:12:33;100988.71;;;19.10;71.51
51147;BME280;37207;53.060;18.726;2023-06-14T08:15:01;100989.39;;;19.13;70.40
51147;BME280;37207;53.060;18.726;2023-06-14T08:17:27;100991.02;;;19.12;70.16
51147;BME280;37207;53.060;18.726;2023-06-14T08:19:54;100994.11;;;19.17;70.59
51147;BME280;37207;53.060;18.726;2023-06-14T08:22:23;100994.34;;;19.21;70.42
51147;BME280;37207;53.060;18.726;2023-06-14T08:24:54;100995.52;;;19.26;70.04
51147;BME280;37207;53.060;18.726;2023-06-14T08:27:21;100985.51;;;19.28;69.60
51147;BME280;37207;53.060;18.726;2023-06-14T08:29:52;100974.24;;;19.31;69.45
51147;BME280;37207;53.060;18.726;2023-06-14T08:32:19;100980.05;;;19.30;69.38
51147;BME280;37207;53.060;18.726;2023-06-14T08:34:45;100976.89;;;19.28;69.13
51147;BME280;37207;53.060;18.726;2023-06-14T08:37:12;100962.29;;;19.31;69.19
51147;BME280;37207;53.060;18.726;2023-06-14T08:39:38;100944.39;;;19.37;69.04
51147;BME280;37207;53.060;18.726;2023-06-14T08:42:07;100944.84;;;19.48;69.23
51147;BME280;37207;53.060;18.726;2023-06-14T08:44:35;100949.95;;;19.72;69.31
51147;BME280;37207;53.060;18.726;2023-06-14T08:47:02;100944.20;;;20.10;69.43
51147;BME280;37207;53.060;18.726;2023-06-14T08:49:31;100939.98;;;20.54;68.55
51147;BME280;37207;53.060;18.726;2023-06-14T08:51:59;100946.36;;;20.77;67.24
51147;BME280;37207;53.060;18.726;2023-06-14T08:54:28;100948.09;;;20.87;66.93
51147;BME280;37207;53.060;18.726;2023-06-14T08:56:58;100947.27;;;20.95;66.92
51147;BME280;37207;53.060;18.726;2023-06-14T08:59:26;100945.16;;;20.96;66.37
51147;BME280;37207;53.060;18.726;2023-06-14T09:01:53;100953.48;;;20.90;66.05
51147;BME280;37207;53.060;18.726;2023-06-14T09:04:21;100958.73;;;20.84;66.10
51147;BME280;37207;53.060;18.726;2023-06-14T09:06:56;100963.48;;;20.78;66.17
51147;BME280;37207;53.060;18.726;2023-06-14T09:09:23;100962.73;;;20.72;66.12
51147;BME280;37207;53.060;18.726;2023-06-14T09:11:50;100963.34;;;20.67;66.02
51147;BME280;37207;53.060;18.726;2023-06-14T09:14:23;100960.02;;;20.67;66.17
51147;BME280;37207;53.060;18.726;2023-06-14T09:16:54;100965.86;;;20.68;65.80
51147;BME280;37207;53.060;18.726;2023-06-14T09:19:22;100968.27;;;20.68;65.23
51147;BME280;37207;53.060;18.726;2023-06-14T09:21:49;100972.65;;;20.83;65.11
51147;BME280;37207;53.060;18.726;2023-06-14T09:24:16;100972.13;;;21.58;64.97
51147;BME280;37207;53.060;18.726;2023-06-14T09:26:43;100976.98;;;22.90;62.85
51147;BME280;37207;53.060;18.726;2023-06-14T09:29:09;100980.36;;;23.90;60.82
51147;BME280;37207;53.060;18.726;2023-06-14T09:31:36;100977.35;;;24.35;59.81
51147;BME280;37207;53.060;18.726;2023-06-14T09:34:03;100975.81;;;24.54;58.90
51147;BME280;37207;53.060;18.726;2023-06-14T09:36:31;100974.33;;;24.66;58.28
51147;BME280;37207;53.060;18.726;2023-06-14T09:39:00;100973.81;;;24.70;57.04
51147;BME280;37207;53.060;18.726;2023-06-14T09:41:35;100974.02;;;24.66;56.37
51147;BME280;37207;53.060;18.726;2023-06-14T09:44:04;100976.84;;;24.62;56.53
51147;BME280;37207;53.060;18.726;2023-06-14T09:46:31;100972.09;;;24.62;56.88
51147;BME280;37207;53.060;18.726;2023-06-14T09:48:58;100969.29;;;24.59;55.18
51147;BME280;37207;53.060;18.726;2023-06-14T09:51:26;100974.00;;;24.48;54.87
51147;BME280;37207;53.060;18.726;2023-06-14T09:54:01;100976.35;;;24.46;54.08
51147;BME280;37207;53.060;18.726;2023-06-14T09:56:37;100976.73;;;24.39;53.90
51147;BME280;37207;53.060;18.726;2023-06-14T09:59:10;100978.00;;;24.30;53.99
51147;BME280;37207;53.060;18.726;2023-06-14T10:01:42;100975.41;;;24.21;54.35
51147;BME280;37207;53.060;18.726;2023-06-14T10:04:10;100963.09;;;24.17;54.33
51147;BME280;37207;53.060;18.726;2023-06-14T10:06:39;100965.72;;;24.12;53.91
51147;BME280;37207;53.060;18.726;2023-06-14T10:09:10;100969.34;;;23.97;53.48
51147;BME280;37207;53.060;18.726;2023-06-14T10:11:37;100972.30;;;23.82;53.63
51147;BME280;37207;53.060;18.726;2023-06-14T10:14:11;100969.11;;;23.80;53.80
51147;BME280;37207;53.060;18.726;2023-06-14T10:17:06;100970.48;;;24.07;54.28
51147;BME280;37207;53.060;18.726;2023-06-14T10:19:42;100969.66;;;24.25;53.07
51147;BME280;37207;53.060;18.726;2023-06-14T10:22:14;100968.96;;;24.29;53.53
51147;BME280;37207;53.060;18.726;2023-06-14T10:24:44;100968.82;;;24.36;53.00
51147;BME280;37207;53.060;18.726;2023-06-14T10:27:13;100962.18;;;24.47;52.90
51147;BME280;37207;53.060;18.726;2023-06-14T10:32:20;100964.17;;;24.47;52.27
51147;BME280;37207;53.060;18.726;2023-06-14T10:34:54;100957.44;;;24.59;52.12
51147;BME280;37207;53.060;18.726;2023-06-14T10:37:21;100958.82;;;24.84;52.61
51147;BME280;37207;53.060;18.726;2023-06-14T10:39:48;100957.09;;;25.16;52.34
51147;BME280;37207;53.060;18.726;2023-06-14T10:42:15;100957.23;;;25.40;50.96
51147;BME280;37207;53.060;18.726;2023-06-14T10:44:52;100955.98;;;25.28;50.55
51147;BME280;37207;53.060;18.726;2023-06-14T10:49:57;100959.14;;;24.73;50.34
51147;BME280;37207;53.060;18.726;2023-06-14T10:52:29;100961.28;;;24.61;51.28
51147;BME280;37207;53.060;18.726;2023-06-14T10:55:22;100958.94;;;24.55;50.97
51147;BME280;37207;53.060;18.726;2023-06-14T10:57:53;100958.54;;;24.45;50.67
51147;BME280;37207;53.060;18.726;2023-06-14T11:00:27;100962.04;;;24.39;50.74
51147;BME280;37207;53.060;18.726;2023-06-14T11:11:10;100946.74;;;24.53;50.19
51147;BME280;37207;53.060;18.726;2023-06-14T11:13:41;100946.58;;;24.75;50.59
51147;BME280;37207;53.060;18.726;2023-06-14T11:16:12;100948.44;;;24.87;49.88
51147;BME280;37207;53.060;18.726;2023-06-14T11:18:39;100949.84;;;24.85;49.23
51147;BME280;37207;53.060;18.726;2023-06-14T11:21:06;100947.18;;;24.98;48.80
51147;BME280;37207;53.060;18.726;2023-06-14T11:23:32;100941.61;;;25.28;48.96
51147;BME280;37207;53.060;18.726;2023-06-14T11:25:59;100942.54;;;25.58;47.56
51147;BME280;37207;53.060;18.726;2023-06-14T11:28:36;100938.95;;;25.63;46.08
51147;BME280;37207;53.060;18.726;2023-06-14T11:31:03;100941.83;;;25.64;46.50
51147;BME280;37207;53.060;18.726;2023-06-14T11:33:30;100943.88;;;25.68;46.41
51147;BME280;37207;53.060;18.726;2023-06-14T11:35:57;100947.38;;;25.61;46.29
51147;BME280;37207;53.060;18.726;2023-06-14T11:38:25;100945.40;;;25.45;46.40
51147;BME280;37207;53.060;18.726;2023-06-14T11:40:52;100949.30;;;25.29;45.95
51147;BME280;37207;53.060;18.726;2023-06-14T11:43:19;100947.42;;;25.06;46.32
51147;BME280;37207;53.060;18.726;2023-06-14T11:45:48;100944.17;;;24.83;46.74
51147;BME280;37207;53.060;18.726;2023-06-14T11:48:15;100945.98;;;24.51;45.49
51147;BME280;37207;53.060;18.726;2023-06-14T11:50:42;100943.86;;;24.20;45.42
51147;BME280;37207;53.060;18.726;2023-06-14T11:53:09;100947.88;;;23.82;45.51
51147;BME280;37207;53.060;18.726;2023-06-14T11:55:37;100946.65;;;23.44;46.55
51147;BME280;37207;53.060;18.726;2023-06-14T11:58:05;100944.54;;;23.14;47.89
51147;BME280;37207;53.060;18.726;2023-06-14T12:00:32;100941.27;;;22.92;48.43
51147;BME280;37207;53.060;18.726;2023-06-14T12:02:59;100940.33;;;22.73;49.13
51147;BME280;37207;53.060;18.726;2023-06-14T12:05:26;100937.92;;;22.59;49.36
51147;BME280;37207;53.060;18.726;2023-06-14T12:08:01;100937.24;;;22.52;49.94
51147;BME280;37207;53.060;18.726;2023-06-14T12:10:29;100937.13;;;22.48;50.28
51147;BME280;37207;53.060;18.726;2023-06-14T12:12:58;100937.39;;;22.44;50.54
51147;BME280;37207;53.060;18.726;2023-06-14T12:15:27;100937.30;;;22.40;49.76
51147;BME280;37207;53.060;18.726;2023-06-14T12:17:55;100932.48;;;22.37;50.37
51147;BME280;37207;53.060;18.726;2023-06-14T12:20:22;100929.04;;;22.36;50.49
51147;BME280;37207;53.060;18.726;2023-06-14T12:22:56;100928.07;;;22.39;50.99
51147;BME280;37207;53.060;18.726;2023-06-14T12:25:26;100924.26;;;22.51;50.51
51147;BME280;37207;53.060;18.726;2023-06-14T12:27:57;100920.73;;;22.71;50.63
51147;BME280;37207;53.060;18.726;2023-06-14T12:30:24;100917.50;;;23.03;50.78
51147;BME280;37207;53.060;18.726;2023-06-14T12:32:50;100917.56;;;23.32;49.54
51147;BME280;37207;53.060;18.726;2023-06-14T12:35:18;100922.79;;;23.40;47.00
51147;BME280;37207;53.060;18.726;2023-06-14T12:37:45;100916.38;;;23.38;47.45
51147;BME280;37207;53.060;18.726;2023-06-14T12:40:13;100918.39;;;23.41;47.39
51147;BME280;37207;53.060;18.726;2023-06-14T12:42:40;100914.42;;;23.49;46.47
51147;BME280;37207;53.060;18.726;2023-06-14T12:45:08;100920.49;;;23.52;45.72
51147;BME280;37207;53.060;18.726;2023-06-14T12:47:35;100923.88;;;23.53;45.18
51147;BME280;37207;53.060;18.726;2023-06-14T12:50:02;100923.45;;;23.47;44.67
51147;BME280;37207;53.060;18.726;2023-06-14T12:52:29;100924.25;;;23.41;44.10
51147;BME280;37207;53.060;18.726;2023-06-14T12:54:55;100921.92;;;23.29;43.90
51147;BME280;37207;53.060;18.726;2023-06-14T12:57:23;100925.04;;;23.15;43.33
51147;BME280;37207;53.060;18.726;2023-06-14T12:59:49;100931.23;;;23.06;43.46
51147;BME280;37207;53.060;18.726;2023-06-14T13:02:18;100936.44;;;23.01;43.88